sensor_id;sensor_type;location;lat;lon;timestamp;P1;durP1;ratioP1;P2;durP2;ratioP2
65373;SDS011;52070;53.760;9.678;2023-07-28T00:02:03;6.28;;;4.32;;
65373;SDS011;52070;53.760;9.678;2023-07-28T00:04:30;9.15;;;4.70;;
65373;SDS011;52070;53.760;9.678;2023-07-28T00:06:57;6.40;;;4.78;;
65373;SDS011;52070;53.760;9.678;2023-07-28T00:09:24;6.45;;;4.45;;
65373;SDS011;52070;53.760;9.678;2023-07-28T00:11:51;7.65;;;5.05;;
65373;SDS011;52070;53.760;9.678;2023-07-28T00:14:18;9.75;;;5.05;;
65373;SDS011;52070;53.760;9.678;2023-07-28T00:16:45;6.68;;;5.25;;
65373;SDS011;52070;53.760;9.678;2023-07-28T00:19:13;6.90;;;5.03;;
65373;SDS011;52070;53.760;9.678;2023-07-28T00:21:40;7.07;;;4.78;;
65373;SDS011;52070;53.760;9.678;2023-07-28T00:24:07;7.78;;;5.00;;
65373;SDS011;52070;53.760;9.678;2023-07-28T00:26:34;9.45;;;5.45;;
65373;SDS011;52070;53.760;9.678;2023-07-28T00:29:01;5.97;;;5.18;;
65373;SDS011;52070;53.760;9.678;2023-07-28T00:31:31;6.05;;;4.78;;
65373;SDS011;52070;53.760;9.678;2023-07-28T00:33:58;6.50;;;5.30;;
65373;SDS011;52070;53.760;9.678;2023-07-28T00:36:27;7.03;;;5.28;;
65373;SDS011;52070;53.760;9.678;2023-07-28T00:38:54;9.07;;;5.55;;
65373;SDS011;52070;53.760;9.678;2023-07-28T00:41:21;8.02;;;5.15;;
65373;SDS011;52070;53.760;9.678;2023-07-28T00:43:48;8.30;;;5.22;;
65373;SDS011;52070;53.760;9.678;2023-07-28T00:46:15;7.15;;;5.45;;
65373;SDS011;52070;53.760;9.678;2023-07-28T00:48:42;6.38;;;5.47;;
65373;SDS011;52070;53.760;9.678;2023-07-28T00:51:09;9.00;;;5.15;;
65373;SDS011;52070;53.760;9.678;2023-07-28T00:53:38;7.82;;;5.40;;
65373;SDS011;52070;53.760;9.678;2023-07-28T00:56:05;6.55;;;5.38;;
65373;SDS011;52070;53.760;9.678;2023-07-28T00:58:33;6.85;;;5.22;;
65373;SDS011;52070;53.760;9.678;2023-07-28T01:01:00;8.00;;;5.75;;
65373;SDS011;52070;53.760;9.678;2023-07-28T01:03:27;6.18;;;5.57;;
65373;SDS011;52070;53.760;9.678;2023-07-28T01:05:56;7.47;;;5.75;;
65373;SDS011;52070;53.760;9.678;2023-07-28T01:08:33;7.13;;;5.70;;
65373;SDS011;52070;53.760;9.678;2023-07-28T01:11:06;9.32;;;5.53;;
65373;SDS011;52070;53.760;9.678;2023-07-28T01:13:33;6.80;;;6.00;;
65373;SDS011;52070;53.760;9.678;2023-07-28T01:16:00;7.65;;;5.47;;
65373;SDS011;52070;53.760;9.678;2023-07-28T01:18:27;9.05;;;6.07;;
65373;SDS011;52070;53.760;9.678;2023-07-28T01:20:55;9.88;;;6.30;;
65373;SDS011;52070;53.760;9.678;2023-07-28T01:23:29;6.00;;;5.30;;
65373;SDS011;52070;53.760;9.678;2023-07-28T01:26:08;8.75;;;6.13;;
65373;SDS011;52070;53.760;9.678;2023-07-28T01:28:38;7.13;;;5.70;;
65373;SDS011;52070;53.760;9.678;2023-07-28T01:31:06;7.60;;;6.03;;
65373;SDS011;52070;53.760;9.678;2023-07-28T01:33:34;9.43;;;5.63;;
65373;SDS011;52070;53.760;9.678;2023-07-28T01:36:02;7.15;;;5.85;;
65373;SDS011;52070;53.760;9.678;2023-07-28T01:38:29;7.07;;;5.78;;
65373;SDS011;52070;53.760;9.678;2023-07-28T01:40:56;7.50;;;5.82;;
65373;SDS011;52070;53.760;9.678;2023-07-28T01:43:23;6.85;;;6.07;;
65373;SDS011;52070;53.760;9.678;2023-07-28T01:45:51;12.93;;;5.85;;
65373;SDS011;52070;53.760;9.678;2023-07-28T01:48:18;6.68;;;5.97;;
65373;SDS011;52070;53.760;9.678;2023-07-28T01:50:45;8.30;;;6.20;;
65373;SDS011;52070;53.760;9.678;2023-07-28T01:53:12;8.32;;;6.28;;
65373;SDS011;52070;53.760;9.678;2023-07-28T01:55:39;8.60;;;6.63;;
65373;SDS011;52070;53.760;9.678;2023-07-28T01:58:06;7.40;;;6.28;;
65373;SDS011;52070;53.760;9.678;2023-07-28T02:00:33;7.88;;;6.60;;
65373;SDS011;52070;53.760;9.678;2023-07-28T02:03:01;13.75;;;7.07;;
65373;SDS011;52070;53.760;9.678;2023-07-28T02:05:29;10.45;;;6.85;;
65373;SDS011;52070;53.760;9.678;2023-07-28T02:07:56;9.05;;;7.28;;
65373;SDS011;52070;53.760;9.678;2023-07-28T02:10:23;8.82;;;6.20;;
65373;SDS011;52070;53.760;9.678;2023-07-28T02:12:50;8.52;;;6.28;;
65373;SDS011;52070;53.760;9.678;2023-07-28T02:15:17;7.53;;;5.95;;
65373;SDS011;52070;53.760;9.678;2023-07-28T02:17:44;6.78;;;5.70;;
65373;SDS011;52070;53.760;9.678;2023-07-28T02:20:13;6.60;;;5.55;;
65373;SDS011;52070;53.760;9.678;2023-07-28T02:22:41;6.00;;;5.40;;
65373;SDS011;52070;53.760;9.678;2023-07-28T02:25:08;7.20;;;5.43;;
65373;SDS011;52070;53.760;9.678;2023-07-28T02:27:36;6.50;;;5.38;;
65373;SDS011;52070;53.760;9.678;2023-07-28T02:30:03;5.70;;;5.10;;
65373;SDS011;52070;53.760;9.678;2023-07-28T02:32:31;5.22;;;4.72;;
65373;SDS011;52070;53.760;9.678;2023-07-28T02:34:58;5.20;;;4.35;;
65373;SDS011;52070;53.760;9.678;2023-07-28T02:37:26;4.80;;;4.30;;
65373;SDS011;52070;53.760;9.678;2023-07-28T02:39:54;6.45;;;4.07;;
65373;SDS011;52070;53.760;9.678;2023-07-28T02:42:20;4.80;;;4.30;;
65373;SDS011;52070;53.760;9.678;2023-07-28T02:44:49;4.10;;;3.70;;
65373;SDS011;52070;53.760;9.678;2023-07-28T02:47:16;5.43;;;3.95;;
65373;SDS011;52070;53.760;9.678;2023-07-28T02:49:43;5.30;;;3.40;;
65373;SDS011;52070;53.760;9.678;2023-07-28T02:52:11;3.88;;;3.33;;
65373;SDS011;52070;53.760;9.678;2023-07-28T02:54:39;6.60;;;3.88;;
65373;SDS011;52070;53.760;9.678;2023-07-28T02:57:06;5.30;;;3.60;;
65373;SDS011;52070;53.760;9.678;2023-07-28T02:59:33;10.10;;;3.78;;
65373;SDS011;52070;53.760;9.678;2023-07-28T03:02:00;6.45;;;3.88;;
65373;SDS011;52070;53.760;9.678;2023-07-28T03:04:27;4.72;;;3.78;;
65373;SDS011;52070;53.760;9.678;2023-07-28T03:06:54;4.53;;;3.80;;
65373;SDS011;52070;53.760;9.678;2023-07-28T03:09:21;3.45;;;3.08;;
65373;SDS011;52070;53.760;9.678;2023-07-28T03:11:50;5.85;;;3.53;;
65373;SDS011;52070;53.760;9.678;2023-07-28T03:14:16;8.50;;;3.60;;
65373;SDS011;52070;53.760;9.678;2023-07-28T03:16:43;7.32;;;3.58;;
65373;SDS011;52070;53.760;9.678;2023-07-28T03:19:10;4.30;;;3.33;;
65373;SDS011;52070;53.760;9.678;2023-07-28T03:21:37;3.53;;;3.17;;
65373;SDS011;52070;53.760;9.678;2023-07-28T03:24:04;5.90;;;3.63;;
65373;SDS011;52070;53.760;9.678;2023-07-28T03:26:31;4.63;;;3.03;;
65373;SDS011;52070;53.760;9.678;2023-07-28T03:29:00;5.68;;;3.47;;
65373;SDS011;52070;53.760;9.678;2023-07-28T03:31:26;4.00;;;3.60;;
65373;SDS011;52070;53.760;9.678;2023-07-28T03:33:53;4.10;;;3.70;;
65373;SDS011;52070;53.760;9.678;2023-07-28T03:36:20;4.90;;;4.10;;
65373;SDS011;52070;53.760;9.678;2023-07-28T03:38:47;4.55;;;3.80;;
65373;SDS011;52070;53.760;9.678;2023-07-28T03:41:14;4.22;;;3.83;;
65373;SDS011;52070;53.760;9.678;2023-07-28T03:43:41;4.35;;;3.95;;
65373;SDS011;52070;53.760;9.678;2023-07-28T03:46:10;4.60;;;4.20;;
65373;SDS011;52070;53.760;9.678;2023-07-28T03:48:37;8.80;;;4.00;;
65373;SDS011;52070;53.760;9.678;2023-07-28T03:51:04;6.15;;;4.80;;
65373;SDS011;52070;53.760;9.678;2023-07-28T03:53:30;11.32;;;5.30;;
65373;SDS011;52070;53.760;9.678;2023-07-28T03:56:00;7.00;;;5.35;;
65373;SDS011;52070;53.760;9.678;2023-07-28T03:58:27;6.32;;;5.72;;
65373;SDS011;52070;53.760;9.678;2023-07-28T04:00:54;9.75;;;5.88;;
65373;SDS011;52070;53.760;9.678;2023-07-28T04:03:22;6.65;;;5.68;;
65373;SDS011;52070;53.760;9.678;2023-07-28T04:05:49;6.88;;;5.97;;
65373;SDS011;52070;53.760;9.678;2023-07-28T04:08:16;7.45;;;5.65;;
65373;SDS011;52070;53.760;9.678;2023-07-28T04:10:43;11.30;;;6.13;;
65373;SDS011;52070;53.760;9.678;2023-07-28T04:13:10;8.05;;;6.60;;
65373;SDS011;52070;53.760;9.678;2023-07-28T04:15:37;8.88;;;5.72;;
65373;SDS011;52070;53.760;9.678;2023-07-28T04:18:04;6.95;;;6.28;;
65373;SDS011;52070;53.760;9.678;2023-07-28T04:20:32;7.93;;;6.43;;
65373;SDS011;52070;53.760;9.678;2023-07-28T04:22:59;7.35;;;6.35;;
65373;SDS011;52070;53.760;9.678;2023-07-28T04:25:26;8.77;;;6.88;;
65373;SDS011;52070;53.760;9.678;2023-07-28T04:27:53;9.82;;;6.97;;
65373;SDS011;52070;53.760;9.678;2023-07-28T04:30:21;9.75;;;7.03;;
65373;SDS011;52070;53.760;9.678;2023-07-28T04:32:48;10.15;;;7.13;;
65373;SDS011;52070;53.760;9.678;2023-07-28T04:35:15;10.95;;;7.10;;
65373;SDS011;52070;53.760;9.678;2023-07-28T04:37:44;8.38;;;6.93;;
65373;SDS011;52070;53.760;9.678;2023-07-28T04:40:11;7.82;;;7.03;;
65373;SDS011;52070;53.760;9.678;2023-07-28T04:42:38;8.65;;;7.13;;
65373;SDS011;52070;53.760;9.678;2023-07-28T04:45:06;13.88;;;7.90;;
65373;SDS011;52070;53.760;9.678;2023-07-28T04:47:33;8.85;;;7.18;;
65373;SDS011;52070;53.760;9.678;2023-07-28T04:50:00;9.20;;;6.80;;
65373;SDS011;52070;53.760;9.678;2023-07-28T04:52:27;16.55;;;8.65;;
65373;SDS011;52070;53.760;9.678;2023-07-28T04:54:56;9.55;;;7.82;;
65373;SDS011;52070;53.760;9.678;2023-07-28T04:57:23;10.60;;;7.72;;
65373;SDS011;52070;53.760;9.678;2023-07-28T04:59:50;10.63;;;8.25;;
65373;SDS011;52070;53.760;9.678;2023-07-28T05:02:17;11.07;;;7.78;;
65373;SDS011;52070;53.760;9.678;2023-07-28T05:04:44;10.98;;;8.10;;
65373;SDS011;52070;53.760;9.678;2023-07-28T05:07:11;10.57;;;8.05;;
65373;SDS011;52070;53.760;9.678;2023-07-28T05:09:38;10.15;;;8.18;;
65373;SDS011;52070;53.760;9.678;2023-07-28T05:12:07;8.73;;;7.25;;
65373;SDS011;52070;53.760;9.678;2023-07-28T05:14:34;8.57;;;7.05;;
65373;SDS011;52070;53.760;9.678;2023-07-28T05:17:01;8.95;;;7.15;;
65373;SDS011;52070;53.760;9.678;2023-07-28T05:19:28;9.45;;;7.90;;
65373;SDS011;52070;53.760;9.678;2023-07-28T05:21:55;12.48;;;7.97;;
65373;SDS011;52070;53.760;9.678;2023-07-28T05:24:22;13.38;;;8.32;;
65373;SDS011;52070;53.760;9.678;2023-07-28T05:26:49;11.82;;;8.60;;
65373;SDS011;52070;53.760;9.678;2023-07-28T05:29:17;14.07;;;8.75;;
65373;SDS011;52070;53.760;9.678;2023-07-28T05:31:45;10.48;;;8.07;;
65373;SDS011;52070;53.760;9.678;2023-07-28T05:34:12;12.45;;;8.30;;
65373;SDS011;52070;53.760;9.678;2023-07-28T05:36:39;13.27;;;9.10;;
65373;SDS011;52070;53.760;9.678;2023-07-28T05:39:06;10.38;;;8.52;;
65373;SDS011;52070;53.760;9.678;2023-07-28T05:41:33;12.40;;;8.18;;
65373;SDS011;52070;53.760;9.678;2023-07-28T05:44:00;9.65;;;7.75;;
65373;SDS011;52070;53.760;9.678;2023-07-28T05:46:28;9.77;;;7.78;;
65373;SDS011;52070;53.760;9.678;2023-07-28T05:48:55;12.85;;;7.88;;
65373;SDS011;52070;53.760;9.678;2023-07-28T05:51:22;12.07;;;8.25;;
65373;SDS011;52070;53.760;9.678;2023-07-28T05:53:50;12.07;;;8.27;;
65373;SDS011;52070;53.760;9.678;2023-07-28T05:56:16;11.02;;;8.10;;
65373;SDS011;52070;53.760;9.678;2023-07-28T05:58:44;12.10;;;8.10;;
65373;SDS011;52070;53.760;9.678;2023-07-28T06:01:11;11.27;;;8.50;;
65373;SDS011;52070;53.760;9.678;2023-07-28T06:03:39;11.25;;;8.43;;
65373;SDS011;52070;53.760;9.678;2023-07-28T06:06:06;11.32;;;8.40;;
65373;SDS011;52070;53.760;9.678;2023-07-28T06:08:34;11.00;;;8.38;;
65373;SDS011;52070;53.760;9.678;2023-07-28T06:11:02;18.88;;;7.97;;
65373;SDS011;52070;53.760;9.678;2023-07-28T06:13:30;10.73;;;7.15;;
65373;SDS011;52070;53.760;9.678;2023-07-28T06:15:57;11.65;;;7.78;;
65373;SDS011;52070;53.760;9.678;2023-07-28T06:18:24;10.88;;;7.53;;
65373;SDS011;52070;53.760;9.678;2023-07-28T06:20:53;9.68;;;7.22;;
65373;SDS011;52070;53.760;9.678;2023-07-28T06:23:19;11.15;;;8.27;;
65373;SDS011;52070;53.760;9.678;2023-07-28T06:25:46;9.68;;;7.03;;
65373;SDS011;52070;53.760;9.678;2023-07-28T06:28:13;12.27;;;7.47;;
65373;SDS011;52070;53.760;9.678;2023-07-28T06:30:40;11.18;;;7.80;;
65373;SDS011;52070;53.760;9.678;2023-07-28T06:33:08;9.90;;;7.85;;
65373;SDS011;52070;53.760;9.678;2023-07-28T06:35:35;8.55;;;6.50;;
65373;SDS011;52070;53.760;9.678;2023-07-28T06:38:04;14.18;;;8.00;;
65373;SDS011;52070;53.760;9.678;2023-07-28T06:40:31;10.40;;;7.65;;
65373;SDS011;52070;53.760;9.678;2023-07-28T06:42:58;9.15;;;6.93;;
65373;SDS011;52070;53.760;9.678;2023-07-28T06:45:25;10.30;;;7.50;;
65373;SDS011;52070;53.760;9.678;2023-07-28T06:47:52;8.98;;;6.90;;
65373;SDS011;52070;53.760;9.678;2023-07-28T06:50:19;7.20;;;5.88;;
65373;SDS011;52070;53.760;9.678;2023-07-28T06:52:46;7.57;;;6.75;;
65373;SDS011;52070;53.760;9.678;2023-07-28T06:55:16;10.88;;;6.82;;
65373;SDS011;52070;53.760;9.678;2023-07-28T06:57:43;10.63;;;7.45;;
65373;SDS011;52070;53.760;9.678;2023-07-28T07:00:11;11.65;;;8.63;;
65373;SDS011;52070;53.760;9.678;2023-07-28T07:02:38;10.57;;;7.90;;
65373;SDS011;52070;53.760;9.678;2023-07-28T07:05:06;10.50;;;7.78;;
65373;SDS011;52070;53.760;9.678;2023-07-28T07:07:33;10.65;;;6.93;;
65373;SDS011;52070;53.760;9.678;2023-07-28T07:10:00;9.15;;;6.00;;
65373;SDS011;52070;53.760;9.678;2023-07-28T07:12:29;7.15;;;5.90;;
65373;SDS011;52070;53.760;9.678;2023-07-28T07:14:56;6.32;;;5.13;;
65373;SDS011;52070;53.760;9.678;2023-07-28T07:17:23;7.07;;;4.95;;
65373;SDS011;52070;53.760;9.678;2023-07-28T07:19:49;8.60;;;4.80;;
65373;SDS011;52070;53.760;9.678;2023-07-28T07:22:16;7.30;;;5.10;;
65373;SDS011;52070;53.760;9.678;2023-07-28T07:24:43;5.22;;;4.50;;
65373;SDS011;52070;53.760;9.678;2023-07-28T07:27:10;6.53;;;5.50;;
65373;SDS011;52070;53.760;9.678;2023-07-28T07:29:39;5.93;;;4.75;;
65373;SDS011;52070;53.760;9.678;2023-07-28T07:32:06;4.72;;;3.92;;
65373;SDS011;52070;53.760;9.678;2023-07-28T07:34:35;5.63;;;4.55;;
65373;SDS011;52070;53.760;9.678;2023-07-28T07:37:03;6.00;;;4.82;;
65373;SDS011;52070;53.760;9.678;2023-07-28T07:39:31;7.53;;;3.65;;
65373;SDS011;52070;53.760;9.678;2023-07-28T07:41:59;5.25;;;4.20;;
65373;SDS011;52070;53.760;9.678;2023-07-28T07:44:26;4.18;;;3.47;;
65373;SDS011;52070;53.760;9.678;2023-07-28T07:46:54;6.10;;;3.83;;
65373;SDS011;52070;53.760;9.678;2023-07-28T07:49:21;4.80;;;2.97;;
65373;SDS011;52070;53.760;9.678;2023-07-28T07:51:48;5.38;;;4.25;;
65373;SDS011;52070;53.760;9.678;2023-07-28T07:54:15;4.70;;;3.50;;
65373;SDS011;52070;53.760;9.678;2023-07-28T07:56:44;4.38;;;3.20;;
65373;SDS011;52070;53.760;9.678;2023-07-28T07:59:12;5.43;;;3.38;;
65373;SDS011;52070;53.760;9.678;2023-07-28T08:01:39;4.15;;;2.85;;
65373;SDS011;52070;53.760;9.678;2023-07-28T08:04:07;3.88;;;2.70;;
65373;SDS011;52070;53.760;9.678;2023-07-28T08:06:34;2.95;;;2.70;;
65373;SDS011;52070;53.760;9.678;2023-07-28T08:09:01;3.00;;;2.67;;
65373;SDS011;52070;53.760;9.678;2023-07-28T08:11:28;4.47;;;2.50;;
65373;SDS011;52070;53.760;9.678;2023-07-28T08:13:55;3.97;;;2.50;;
65373;SDS011;52070;53.760;9.678;2023-07-28T08:16:22;3.28;;;2.85;;
65373;SDS011;52070;53.760;9.678;2023-07-28T08:18:49;14.07;;;3.17;;
65373;SDS011;52070;53.760;9.678;2023-07-28T08:21:17;6.25;;;3.00;;
65373;SDS011;52070;53.760;9.678;2023-07-28T08:23:44;3.00;;;2.70;;
65373;SDS011;52070;53.760;9.678;2023-07-28T08:26:11;2.63;;;2.40;;
65373;SDS011;52070;53.760;9.678;2023-07-28T08:28:39;5.70;;;2.78;;
65373;SDS011;52070;53.760;9.678;2023-07-28T08:31:06;5.75;;;2.50;;
65373;SDS011;52070;53.760;9.678;2023-07-28T08:33:33;2.97;;;2.60;;
65373;SDS011;52070;53.760;9.678;2023-07-28T08:36:00;4.57;;;2.85;;
65373;SDS011;52070;53.760;9.678;2023-07-28T08:38:28;2.40;;;2.20;;
65373;SDS011;52070;53.760;9.678;2023-07-28T08:40:56;2.97;;;2.42;;
65373;SDS011;52070;53.760;9.678;2023-07-28T08:43:24;2.90;;;2.00;;
65373;SDS011;52070;53.760;9.678;2023-07-28T08:45:51;4.13;;;2.13;;
65373;SDS011;52070;53.760;9.678;2023-07-28T08:48:20;2.38;;;2.08;;
65373;SDS011;52070;53.760;9.678;2023-07-28T08:50:47;4.70;;;2.20;;
65373;SDS011;52070;53.760;9.678;2023-07-28T08:53:14;3.55;;;1.90;;
65373;SDS011;52070;53.760;9.678;2023-07-28T08:55:42;1.80;;;1.70;;
65373;SDS011;52070;53.760;9.678;2023-07-28T08:58:15;3.42;;;2.00;;
65373;SDS011;52070;53.760;9.678;2023-07-28T09:00:44;5.63;;;2.22;;
65373;SDS011;52070;53.760;9.678;2023-07-28T09:03:14;4.50;;;2.20;;
65373;SDS011;52070;53.760;9.678;2023-07-28T09:05:42;2.20;;;2.00;;
65373;SDS011;52070;53.760;9.678;2023-07-28T09:08:09;2.22;;;1.90;;
65373;SDS011;52070;53.760;9.678;2023-07-28T09:10:40;3.70;;;1.70;;
65373;SDS011;52070;53.760;9.678;2023-07-28T09:13:10;2.25;;;1.80;;
65373;SDS011;52070;53.760;9.678;2023-07-28T09:15:37;2.08;;;1.73;;
65373;SDS011;52070;53.760;9.678;2023-07-28T09:18:06;1.70;;;1.60;;
65373;SDS011;52070;53.760;9.678;2023-07-28T09:20:35;1.70;;;1.60;;
65373;SDS011;52070;53.760;9.678;2023-07-28T09:23:03;2.50;;;1.90;;
65373;SDS011;52070;53.760;9.678;2023-07-28T09:25:31;1.70;;;1.60;;
65373;SDS011;52070;53.760;9.678;2023-07-28T09:27:58;2.45;;;2.25;;
65373;SDS011;52070;53.760;9.678;2023-07-28T09:30:28;3.17;;;1.85;;
65373;SDS011;52070;53.760;9.678;2023-07-28T09:33:10;2.63;;;1.63;;
65373;SDS011;52070;53.760;9.678;2023-07-28T09:35:46;1.98;;;1.77;;
65373;SDS011;52070;53.760;9.678;2023-07-28T09:38:14;3.28;;;1.90;;
65373;SDS011;52070;53.760;9.678;2023-07-28T09:40:41;3.08;;;2.00;;
65373;SDS011;52070;53.760;9.678;2023-07-28T09:43:09;3.40;;;1.90;;
65373;SDS011;52070;53.760;9.678;2023-07-28T09:45:38;2.33;;;1.85;;
65373;SDS011;52070;53.760;9.678;2023-07-28T09:48:06;1.80;;;1.70;;
65373;SDS011;52070;53.760;9.678;2023-07-28T09:50:37;2.10;;;1.60;;
65373;SDS011;52070;53.760;9.678;2023-07-28T09:53:05;1.67;;;1.58;;
65373;SDS011;52070;53.760;9.678;2023-07-28T09:55:35;2.90;;;1.88;;
65373;SDS011;52070;53.760;9.678;2023-07-28T09:58:05;2.65;;;1.60;;
65373;SDS011;52070;53.760;9.678;2023-07-28T10:00:33;2.45;;;1.65;;
65373;SDS011;52070;53.760;9.678;2023-07-28T10:03:01;1.92;;;1.67;;
65373;SDS011;52070;53.760;9.678;2023-07-28T10:05:29;2.30;;;1.70;;
65373;SDS011;52070;53.760;9.678;2023-07-28T10:07:56;1.90;;;1.67;;
65373;SDS011;52070;53.760;9.678;2023-07-28T10:10:24;2.80;;;1.67;;
65373;SDS011;52070;53.760;9.678;2023-07-28T10:12:54;1.48;;;1.25;;
65373;SDS011;52070;53.760;9.678;2023-07-28T10:15:27;1.63;;;1.50;;
65373;SDS011;52070;53.760;9.678;2023-07-28T10:17:55;1.50;;;1.30;;
65373;SDS011;52070;53.760;9.678;2023-07-28T10:20:29;2.80;;;1.10;;
65373;SDS011;52070;53.760;9.678;2023-07-28T10:23:07;1.92;;;1.63;;
65373;SDS011;52070;53.760;9.678;2023-07-28T10:25:39;1.45;;;1.30;;
65373;SDS011;52070;53.760;9.678;2023-07-28T10:28:08;1.50;;;1.40;;
65373;SDS011;52070;53.760;9.678;2023-07-28T10:30:53;3.55;;;1.58;;
65373;SDS011;52070;53.760;9.678;2023-07-28T10:33:28;1.95;;;1.42;;
65373;SDS011;52070;53.760;9.678;2023-07-28T10:35:58;1.42;;;1.33;;
65373;SDS011;52070;53.760;9.678;2023-07-28T10:38:29;3.03;;;1.45;;
65373;SDS011;52070;53.760;9.678;2023-07-28T10:41:05;1.67;;;1.10;;
65373;SDS011;52070;53.760;9.678;2023-07-28T10:43:33;1.38;;;1.17;;
65373;SDS011;52070;53.760;9.678;2023-07-28T10:46:00;2.22;;;1.25;;
65373;SDS011;52070;53.760;9.678;2023-07-28T10:48:27;1.45;;;1.33;;
65373;SDS011;52070;53.760;9.678;2023-07-28T10:50:54;3.22;;;1.38;;
65373;SDS011;52070;53.760;9.678;2023-07-28T10:53:23;1.85;;;1.60;;
65373;SDS011;52070;53.760;9.678;2023-07-28T10:55:50;4.88;;;1.40;;
65373;SDS011;52070;53.760;9.678;2023-07-28T10:58:17;1.73;;;1.33;;
65373;SDS011;52070;53.760;9.678;2023-07-28T11:00:45;1.90;;;1.40;;
65373;SDS011;52070;53.760;9.678;2023-07-28T11:03:12;1.40;;;1.30;;
65373;SDS011;52070;53.760;9.678;2023-07-28T11:05:39;4.13;;;1.58;;
65373;SDS011;52070;53.760;9.678;2023-07-28T11:08:07;4.28;;;1.63;;
65373;SDS011;52070;53.760;9.678;2023-07-28T11:10:35;2.20;;;1.67;;
65373;SDS011;52070;53.760;9.678;2023-07-28T11:13:03;3.15;;;1.33;;
65373;SDS011;52070;53.760;9.678;2023-07-28T11:15:32;1.80;;;1.20;;
65373;SDS011;52070;53.760;9.678;2023-07-28T11:17:59;2.13;;;1.35;;
65373;SDS011;52070;53.760;9.678;2023-07-28T11:20:27;2.00;;;1.10;;
65373;SDS011;52070;53.760;9.678;2023-07-28T11:22:55;2.40;;;1.50;;
65373;SDS011;52070;53.760;9.678;2023-07-28T11:25:24;1.38;;;1.27;;
65373;SDS011;52070;53.760;9.678;2023-07-28T11:27:53;1.60;;;1.48;;
65373;SDS011;52070;53.760;9.678;2023-07-28T11:30:21;3.85;;;1.73;;
65373;SDS011;52070;53.760;9.678;2023-07-28T11:32:50;2.25;;;1.67;;
65373;SDS011;52070;53.760;9.678;2023-07-28T11:35:18;2.20;;;1.50;;
65373;SDS011;52070;53.760;9.678;2023-07-28T11:37:47;2.85;;;1.48;;
65373;SDS011;52070;53.760;9.678;2023-07-28T11:40:16;1.80;;;1.52;;
65373;SDS011;52070;53.760;9.678;2023-07-28T11:42:45;1.40;;;1.30;;
65373;SDS011;52070;53.760;9.678;2023-07-28T11:45:16;1.73;;;1.50;;
65373;SDS011;52070;53.760;9.678;2023-07-28T11:47:51;1.77;;;1.40;;
65373;SDS011;52070;53.760;9.678;2023-07-28T11:50:24;2.80;;;1.40;;
65373;SDS011;52070;53.760;9.678;2023-07-28T11:52:51;1.60;;;1.40;;
65373;SDS011;52070;53.760;9.678;2023-07-28T11:55:18;1.63;;;1.40;;
65373;SDS011;52070;53.760;9.678;2023-07-28T11:57:46;2.03;;;1.67;;
65373;SDS011;52070;53.760;9.678;2023-07-28T12:00:14;1.77;;;1.67;;
65373;SDS011;52070;53.760;9.678;2023-07-28T12:02:43;1.90;;;1.70;;
65373;SDS011;52070;53.760;9.678;2023-07-28T12:05:14;1.30;;;1.20;;
65373;SDS011;52070;53.760;9.678;2023-07-28T12:07:47;1.80;;;1.60;;
65373;SDS011;52070;53.760;9.678;2023-07-28T12:10:14;1.85;;;1.58;;
65373;SDS011;52070;53.760;9.678;2023-07-28T12:12:44;1.73;;;1.50;;
65373;SDS011;52070;53.760;9.678;2023-07-28T12:15:20;1.83;;;1.73;;
65373;SDS011;52070;53.760;9.678;2023-07-28T12:18:04;2.13;;;1.45;;
65373;SDS011;52070;53.760;9.678;2023-07-28T12:20:36;3.15;;;1.60;;
65373;SDS011;52070;53.760;9.678;2023-07-28T12:23:04;3.10;;;1.60;;
65373;SDS011;52070;53.760;9.678;2023-07-28T12:25:32;3.50;;;1.98;;
65373;SDS011;52070;53.760;9.678;2023-07-28T12:27:59;2.33;;;1.40;;
65373;SDS011;52070;53.760;9.678;2023-07-28T12:30:28;3.47;;;1.33;;
65373;SDS011;52070;53.760;9.678;2023-07-28T12:32:55;2.55;;;1.60;;
65373;SDS011;52070;53.760;9.678;2023-07-28T12:35:22;1.40;;;1.30;;
65373;SDS011;52070;53.760;9.678;2023-07-28T12:37:49;2.10;;;1.30;;
65373;SDS011;52070;53.760;9.678;2023-07-28T12:40:17;1.63;;;1.08;;
65373;SDS011;52070;53.760;9.678;2023-07-28T12:42:45;2.55;;;1.40;;
65373;SDS011;52070;53.760;9.678;2023-07-28T12:45:13;3.35;;;1.20;;
65373;SDS011;52070;53.760;9.678;2023-07-28T12:47:42;1.38;;;1.23;;
65373;SDS011;52070;53.760;9.678;2023-07-28T12:50:09;2.33;;;1.27;;
65373;SDS011;52070;53.760;9.678;2023-07-28T12:52:37;1.50;;;1.40;;
65373;SDS011;52070;53.760;9.678;2023-07-28T12:55:04;1.50;;;1.40;;
65373;SDS011;52070;53.760;9.678;2023-07-28T12:57:31;2.50;;;1.60;;
65373;SDS011;52070;53.760;9.678;2023-07-28T13:00:00;1.63;;;1.52;;
65373;SDS011;52070;53.760;9.678;2023-07-28T13:02:32;1.50;;;1.40;;
65373;SDS011;52070;53.760;9.678;2023-07-28T13:05:00;2.03;;;1.20;;
65373;SDS011;52070;53.760;9.678;2023-07-28T13:07:27;1.27;;;1.17;;
65373;SDS011;52070;53.760;9.678;2023-07-28T13:09:55;2.95;;;1.73;;
65373;SDS011;52070;53.760;9.678;2023-07-28T13:12:22;1.58;;;1.48;;
65373;SDS011;52070;53.760;9.678;2023-07-28T13:14:49;1.65;;;1.55;;
65373;SDS011;52070;53.760;9.678;2023-07-28T13:17:16;3.65;;;1.77;;
65373;SDS011;52070;53.760;9.678;2023-07-28T13:19:43;1.45;;;1.35;;
65373;SDS011;52070;53.760;9.678;2023-07-28T13:22:12;1.58;;;1.48;;
65373;SDS011;52070;53.760;9.678;2023-07-28T13:24:38;2.22;;;1.30;;
65373;SDS011;52070;53.760;9.678;2023-07-28T13:27:06;1.40;;;1.30;;
65373;SDS011;52070;53.760;9.678;2023-07-28T13:29:33;1.50;;;1.40;;
65373;SDS011;52070;53.760;9.678;2023-07-28T13:32:00;1.30;;;1.15;;
65373;SDS011;52070;53.760;9.678;2023-07-28T13:34:27;1.00;;;1.00;;
65373;SDS011;52070;53.760;9.678;2023-07-28T13:36:55;1.27;;;1.17;;
65373;SDS011;52070;53.760;9.678;2023-07-28T13:39:23;0.90;;;0.90;;
65373;SDS011;52070;53.760;9.678;2023-07-28T13:41:50;1.02;;;0.95;;
65373;SDS011;52070;53.760;9.678;2023-07-28T13:44:17;1.00;;;1.00;;
65373;SDS011;52070;53.760;9.678;2023-07-28T13:46:44;1.50;;;1.40;;
65373;SDS011;52070;53.760;9.678;2023-07-28T13:49:11;1.50;;;1.40;;
65373;SDS011;52070;53.760;9.678;2023-07-28T13:51:38;2.20;;;1.67;;
65373;SDS011;52070;53.760;9.678;2023-07-28T13:54:05;2.80;;;1.60;;
65373;SDS011;52070;53.760;9.678;2023-07-28T13:56:33;1.40;;;1.30;;
65373;SDS011;52070;53.760;9.678;2023-07-28T13:59:00;1.30;;;1.20;;
65373;SDS011;52070;53.760;9.678;2023-07-28T14:01:27;1.20;;;1.10;;
65373;SDS011;52070;53.760;9.678;2023-07-28T14:03:54;1.42;;;1.23;;
65373;SDS011;52070;53.760;9.678;2023-07-28T14:06:21;1.50;;;1.10;;
65373;SDS011;52070;53.760;9.678;2023-07-28T14:08:48;2.33;;;1.20;;
65373;SDS011;52070;53.760;9.678;2023-07-28T14:11:15;1.35;;;1.10;;
65373;SDS011;52070;53.760;9.678;2023-07-28T14:13:43;1.35;;;1.17;;
65373;SDS011;52070;53.760;9.678;2023-07-28T14:16:10;1.83;;;1.10;;
65373;SDS011;52070;53.760;9.678;2023-07-28T14:18:38;2.88;;;1.10;;
65373;SDS011;52070;53.760;9.678;2023-07-28T14:21:06;2.95;;;1.10;;
65373;SDS011;52070;53.760;9.678;2023-07-28T14:23:33;1.02;;;1.00;;
65373;SDS011;52070;53.760;9.678;2023-07-28T14:26:00;1.70;;;1.08;;
65373;SDS011;52070;53.760;9.678;2023-07-28T14:28:26;1.58;;;1.42;;
65373;SDS011;52070;53.760;9.678;2023-07-28T14:30:55;2.97;;;1.10;;
65373;SDS011;52070;53.760;9.678;2023-07-28T14:33:22;3.45;;;1.20;;
65373;SDS011;52070;53.760;9.678;2023-07-28T14:35:49;1.48;;;1.38;;
65373;SDS011;52070;53.760;9.678;2023-07-28T14:38:16;1.30;;;1.20;;
65373;SDS011;52070;53.760;9.678;2023-07-28T14:40:43;2.28;;;0.93;;
65373;SDS011;52070;53.760;9.678;2023-07-28T14:43:14;1.08;;;1.08;;
65373;SDS011;52070;53.760;9.678;2023-07-28T14:45:41;1.00;;;1.00;;
65373;SDS011;52070;53.760;9.678;2023-07-28T14:48:09;1.35;;;1.10;;
65373;SDS011;52070;53.760;9.678;2023-07-28T14:50:37;1.50;;;1.20;;